This is the latest recevied weather packets stored in our database for station/object HS1AXC-1. If no packets are shown the sender has not sent any weather packets the latest 10 day(s).
| Time | Temp. | Humidity | Pressure | Rain* | Wind** | Luminosity | Snow |
|---|---|---|---|---|---|---|---|
| 1787898504 | 36.11° C | 61% | 1006 hPa | - | - | 3 W/m² | - |
| 1787897882 | 35.56° C | 63% | 1007 hPa | - | - | 1 W/m² | - |
| 1787897260 | 35° C | 64% | 1007 hPa | - | - | 2 W/m² | - |
| 1787896637 | 35.56° C | 63% | 1007 hPa | - | - | 1 W/m² | - |
| 1787896015 | 35.56° C | 62% | 1007 hPa | - | - | 1 W/m² | - |
| 1787895393 | 36.11° C | 60% | 1008 hPa | - | - | 1 W/m² | - |
| 1787894771 | 36.11° C | 59% | 1008 hPa | - | - | 1 W/m² | - |
| 1787894149 | 35.56° C | 61% | 1008 hPa | - | - | 1 W/m² | - |
| 1787893527 | 36.11° C | 61% | 1008 hPa | - | - | 2 W/m² | - |
| 1787892904 | 36.11° C | 62% | 1008 hPa | - | - | 1 W/m² | - |
| 1787892282 | 35.56° C | 64% | 1009 hPa | - | - | 2 W/m² | - |
| 1787891660 | 35° C | 67% | 1009 hPa | - | - | 2 W/m² | - |
| 1787890728 | 33.89° C | 69% | 1009 hPa | - | - | 1 W/m² | - |
| 1787889853 | 35° C | 66% | 1009 hPa | - | - | 3 W/m² | - |
| 1787889231 | 35° C | 65% | 1009 hPa | - | - | 2 W/m² | - |
| 1787888608 | 33.89° C | 70% | 1009 hPa | - | - | 1 W/m² | - |
| 1787887986 | 34.44° C | 69% | 1010 hPa | - | - | 1 W/m² | - |
| 1787887364 | 33.89° C | 69% | 1010 hPa | - | - | 1 W/m² | - |
| 1787886742 | 35° C | 65% | 1010 hPa | - | - | 2 W/m² | - |
| 1787886120 | 34.44° C | 66% | 1010 hPa | - | - | 1 W/m² | - |
| 1787885504 | 34.44° C | 67% | 1010 hPa | - | - | 2 W/m² | - |
| 1787884876 | 34.44° C | 66% | 1010 hPa | - | - | 1 W/m² | - |
| 1787884254 | 34.44° C | 67% | 1010 hPa | - | - | 1 W/m² | - |
| 1787883632 | 34.44° C | 67% | 1009 hPa | - | - | 2 W/m² | - |
| 1787883010 | 33.89° C | 68% | 1009 hPa | - | - | 2 W/m² | - |
* Rain since midnight (hover to see other rain measurements)
** Current wind speed in m/s (hover to see current wind gust speed)